Time;durP1;ratioP1;P1;durP2;ratioP2;P2;SDS_P1;SDS_P2;PMS_P1;PMS_P2;Temp;Humidity;BMP_temperature;BMP_pressure;BME280_temperature;BME280_humidity;BME280_pressure;Samples;Min_cycle;Max_cycle;Signal;HPM_P1;HPM_P2
2023/04/05 00:00:34;;;;;;;15.70;8.10;;;;;;;;;;107374;1257;22518;-80
2023/04/05 00:03:13;;;;;;;17.80;9.40;;;;;;;;;;107495;1257;22521;-80
2023/04/05 00:05:39;;;;;;;14.80;7.90;;;;;;;;;;107501;1254;22517;-77
2023/04/05 00:08:17;;;;;;;19.50;8.60;;;;;;;;;;107429;1254;23771;-77
2023/04/05 00:10:43;;;;;;;21.30;9.90;;;;;;;;;;107428;1254;22522;-77
2023/04/05 00:13:10;;;;;;;19.50;8.90;;;;;;;;;;107305;1260;22528;-77
2023/04/05 00:15:36;;;;;;;20.00;11.50;;;;;;;;;;107439;1257;22545;-77
2023/04/05 00:18:02;;;;;;;23.90;11.60;;;;;;;;;;107494;1254;25309;-78
2023/04/05 00:20:29;;;;;;;25.60;11.30;;;;;;;;;;107410;1256;22541;-78
2023/04/05 00:22:55;;;;;;;17.60;11.00;;;;;;;;;;107428;1253;22655;-78
2023/04/05 00:25:22;;;;;;;29.80;14.30;;;;;;;;;;107498;1254;25433;-79
2023/04/05 00:27:48;;;;;;;30.80;13.20;;;;;;;;;;107438;1256;22525;-79
2023/04/05 00:30:20;;;;;;;22.10;11.20;;;;;;;;;;107365;1257;24320;-77
2023/04/05 00:32:48;;;;;;;18.70;10.80;;;;;;;;;;107350;1255;24226;-77
2023/04/05 00:35:15;;;;;;;20.10;9.90;;;;;;;;;;110594;1252;22876;-79
2023/04/05 00:37:41;;;;;;;19.70;11.90;;;;;;;;;;108622;1257;22536;-77
2023/04/05 00:40:08;;;;;;;23.20;11.00;;;;;;;;;;107403;1258;25496;-77
2023/04/05 00:42:34;;;;;;;22.70;12.10;;;;;;;;;;107384;1254;25428;-78
2023/04/05 00:45:01;;;;;;;21.80;12.10;;;;;;;;;;107374;1253;22549;-78
2023/04/05 00:47:28;;;;;;;20.10;12.00;;;;;;;;;;107371;1254;25666;-77
2023/04/05 00:49:54;;;;;;;19.40;8.70;;;;;;;;;;107364;1256;22532;-78
2023/04/05 00:52:22;;;;;;;16.60;8.30;;;;;;;;;;107351;1257;24739;-77
2023/04/05 00:54:48;;;;;;;16.40;9.50;;;;;;;;;;110591;1253;22976;-78
2023/04/05 00:57:15;;;;;;;15.10;8.70;;;;;;;;;;107186;1259;25355;-78
2023/04/05 00:59:41;;;;;;;19.50;11.50;;;;;;;;;;107275;1256;22534;-78
2023/04/05 01:02:15;;;;;;;14.30;10.00;;;;;;;;;;107252;1258;24244;-79
2023/04/05 01:04:48;;;;;;;23.30;12.80;;;;;;;;;;107264;1257;22519;-78
2023/04/05 01:07:18;;;;;;;20.30;11.30;;;;;;;;;;107231;1254;22533;-78
2023/04/05 01:09:47;;;;;;;16.00;9.00;;;;;;;;;;107320;1258;22544;-78
2023/04/05 01:12:17;;;;;;;18.70;9.50;;;;;;;;;;107238;1254;24259;-78
2023/04/05 01:14:46;;;;;;;18.30;10.90;;;;;;;;;;107230;1254;22534;-77
2023/04/05 01:17:13;;;;;;;17.10;11.30;;;;;;;;;;107283;1254;22528;-79
2023/04/05 01:19:40;;;;;;;17.40;8.70;;;;;;;;;;107249;1256;22574;-77
2023/04/05 01:22:28;;;;;;;24.90;10.50;;;;;;;;;;107139;1255;22531;-77
2023/04/05 01:25:01;;;;;;;21.10;9.80;;;;;;;;;;107340;1258;25271;-79
2023/04/05 01:27:37;;;;;;;23.80;10.90;;;;;;;;;;110583;1254;22925;-78
2023/04/05 01:30:05;;;;;;;24.20;10.90;;;;;;;;;;109331;1258;22540;-79
2023/04/05 01:32:50;;;;;;;21.30;12.00;;;;;;;;;;107316;1258;22493;-79
2023/04/05 01:35:19;;;;;;;23.20;11.30;;;;;;;;;;107247;1256;22624;-78
2023/04/05 01:37:45;;;;;;;;;;;;;;;;;;107391;1254;22520;-78
2023/04/05 01:40:11;;;;;;;24.20;11.70;;;;;;;;;;107273;1254;24244;-77
2023/04/05 01:42:38;;;;;;;26.50;12.30;;;;;;;;;;107218;1258;25263;-79
2023/04/05 01:45:04;;;;;;;20.90;11.20;;;;;;;;;;107275;1258;22549;-78
2023/04/05 01:47:31;;;;;;;30.80;13.50;;;;;;;;;;107427;1256;22631;-79
2023/04/05 01:49:57;;;;;;;28.90;16.00;;;;;;;;;;107353;1254;24238;-77
2023/04/05 01:52:24;;;;;;;24.80;12.20;;;;;;;;;;107351;1252;25371;-77
2023/04/05 01:54:50;;;;;;;31.90;14.50;;;;;;;;;;107393;1253;22570;-77
2023/04/05 01:57:16;;;;;;;21.10;11.90;;;;;;;;;;107295;1254;22531;-78
2023/04/05 01:59:43;;;;;;;22.50;10.50;;;;;;;;;;106980;1257;369073;-79
2023/04/05 02:02:09;;;;;;;20.70;11.10;;;;;;;;;;107338;1257;22516;-77
2023/04/05 02:04:35;;;;;;;21.00;10.50;;;;;;;;;;107366;1254;22541;-77
2023/04/05 02:07:02;;;;;;;23.50;12.40;;;;;;;;;;107376;1254;22527;-77
2023/04/05 02:09:28;;;;;;;25.20;13.70;;;;;;;;;;107430;1257;22533;-77
2023/04/05 02:11:55;;;;;;;38.20;18.10;;;;;;;;;;107335;1254;25391;-79
2023/04/05 02:14:22;;;;;;;20.70;12.20;;;;;;;;;;107396;1253;24378;-77
2023/04/05 02:16:49;;;;;;;21.40;11.80;;;;;;;;;;107927;1252;25268;-78
2023/04/05 02:19:21;;;;;;;23.80;13.40;;;;;;;;;;107340;1257;22526;-78
2023/04/05 02:21:48;;;;;;;25.60;14.50;;;;;;;;;;107476;1253;25394;-78
2023/04/05 02:24:15;;;;;;;27.70;12.70;;;;;;;;;;107402;1254;22529;-77
2023/04/05 02:26:41;;;;;;;33.30;17.50;;;;;;;;;;107395;1257;27151;-77
2023/04/05 02:29:07;;;;;;;52.40;21.30;;;;;;;;;;107336;1255;22537;-78
2023/04/05 02:31:34;;;;;;;54.40;23.90;;;;;;;;;;107452;1254;26094;-78
2023/04/05 02:34:01;;;;;;;35.70;14.70;;;;;;;;;;107362;1254;24286;-78
2023/04/05 02:36:27;;;;;;;27.90;13.10;;;;;;;;;;107334;1254;22546;-77
2023/04/05 02:38:54;;;;;;;24.80;11.40;;;;;;;;;;110626;1253;22491;-78
2023/04/05 02:41:22;;;;;;;27.60;13.50;;;;;;;;;;108900;1254;25396;-79
2023/04/05 02:43:49;;;;;;;28.40;14.20;;;;;;;;;;107231;1254;23232;-79
2023/04/05 02:46:15;;;;;;;28.70;15.00;;;;;;;;;;107375;1257;23099;-77
2023/04/05 02:48:42;;;;;;;22.50;10.80;;;;;;;;;;107388;1254;22535;-77
2023/04/05 02:51:08;;;;;;;19.30;10.70;;;;;;;;;;107411;1255;23803;-77
2023/04/05 02:53:35;;;;;;;33.70;13.10;;;;;;;;;;107430;1253;22541;-77
2023/04/05 02:56:01;;;;;;;19.20;12.10;;;;;;;;;;107370;1254;22792;-79
2023/04/05 02:58:28;;;;;;;22.30;12.20;;;;;;;;;;107220;1254;22547;-78
2023/04/05 03:00:55;;;;;;;24.60;12.90;;;;;;;;;;107359;1254;25379;-78
2023/04/05 03:03:21;;;;;;;29.40;14.10;;;;;;;;;;107524;1254;22569;-79
2023/04/05 03:05:48;;;;;;;17.50;11.00;;;;;;;;;;109095;1253;22535;-78
2023/04/05 03:08:18;;;;;;;20.90;13.60;;;;;;;;;;107423;1257;23247;-78
2023/04/05 03:10:45;;;;;;;29.60;15.80;;;;;;;;;;107385;1255;22557;-78
2023/04/05 03:13:12;;;;;;;25.90;13.70;;;;;;;;;;107402;1256;22528;-78
2023/04/05 03:15:39;;;;;;;24.70;12.70;;;;;;;;;;107422;1254;22562;-79
2023/04/05 03:18:05;;;;;;;23.10;11.30;;;;;;;;;;107384;1254;23207;-79
2023/04/05 03:20:33;;;;;;;30.20;13.40;;;;;;;;;;107399;1254;22552;-78
2023/04/05 03:22:59;;;;;;;19.20;9.60;;;;;;;;;;107440;1253;22524;-78
2023/04/05 03:25:25;;;;;;;24.10;12.30;;;;;;;;;;107430;1253;22650;-79
2023/04/05 03:27:52;;;;;;;24.50;13.20;;;;;;;;;;107362;1254;22522;-78
2023/04/05 03:30:19;;;;;;;26.20;12.20;;;;;;;;;;107441;1254;22535;-77
2023/04/05 03:32:45;;;;;;;22.30;12.40;;;;;;;;;;107394;1253;22521;-77
2023/04/05 03:35:12;;;;;;;24.20;13.40;;;;;;;;;;107441;1254;22520;-77
2023/04/05 03:37:38;;;;;;;25.10;13.30;;;;;;;;;;107409;1257;22554;-78
2023/04/05 03:40:05;;;;;;;23.00;12.40;;;;;;;;;;107425;1252;22541;-78
2023/04/05 03:42:32;;;;;;;27.60;13.70;;;;;;;;;;107429;1254;22571;-78
2023/04/05 03:44:58;;;;;;;25.30;14.00;;;;;;;;;;107403;1254;24937;-79
2023/04/05 03:47:25;;;;;;;26.80;15.50;;;;;;;;;;107417;1254;22540;-77
2023/04/05 03:49:51;;;;;;;29.30;15.20;;;;;;;;;;107433;1257;22650;-77
2023/04/05 03:52:17;;;;;;;32.70;16.90;;;;;;;;;;107421;1254;24330;-77
2023/04/05 03:54:44;;;;;;;31.80;16.40;;;;;;;;;;107446;1254;25297;-79
2023/04/05 03:57:10;;;;;;;29.30;16.70;;;;;;;;;;107522;1250;24201;-78
2023/04/05 03:59:36;;;;;;;21.20;13.40;;;;;;;;;;107537;1250;25310;-77
2023/04/05 04:02:03;;;;;;;22.90;13.30;;;;;;;;;;107553;1250;22606;-79
2023/04/05 04:04:29;;;;;;;23.50;14.70;;;;;;;;;;108136;1249;25867;-77
2023/04/05 04:06:56;;;;;;;29.90;12.90;;;;;;;;;;107870;1249;22533;-79
2023/04/05 04:09:22;;;;;;;35.70;17.30;;;;;;;;;;107560;1251;25290;-77
2023/04/05 04:11:49;;;;;;;43.60;25.40;;;;;;;;;;108490;1250;23622;-78
2023/04/05 04:14:15;;;;;;;43.30;22.40;;;;;;;;;;107609;1251;23122;-77
2023/04/05 04:16:42;;;;;;;27.30;17.20;;;;;;;;;;107581;1253;25274;-79
2023/04/05 04:19:08;;;;;;;37.60;21.00;;;;;;;;;;108065;1251;22607;-77
2023/04/05 04:21:34;;;;;;;56.70;32.60;;;;;;;;;;107531;1249;24193;-79
2023/04/05 04:24:01;;;;;;;38.00;20.70;;;;;;;;;;107552;1250;24236;-78
2023/04/05 04:26:27;;;;;;;36.40;18.60;;;;;;;;;;107513;1250;24369;-78
2023/04/05 04:28:54;;;;;;;36.80;18.60;;;;;;;;;;107542;1250;22592;-77
2023/04/05 04:31:21;;;;;;;37.90;19.30;;;;;;;;;;107575;1250;24318;-79
2023/04/05 04:33:50;;;;;;;31.20;16.70;;;;;;;;;;107549;1251;25275;-77
2023/04/05 04:36:17;;;;;;;29.40;16.60;;;;;;;;;;107562;1253;22551;-79
2023/04/05 04:38:43;;;;;;;32.60;16.20;;;;;;;;;;107534;1251;22614;-79
2023/04/05 04:41:09;;;;;;;36.00;17.10;;;;;;;;;;107525;1250;26381;-77
2023/04/05 04:43:41;;;;;;;40.40;20.60;;;;;;;;;;107531;1251;25221;-79
2023/04/05 04:46:10;;;;;;;41.20;18.50;;;;;;;;;;107556;1252;22608;-79
2023/04/05 04:48:36;;;;;;;35.40;17.40;;;;;;;;;;107701;1249;22553;-78
2023/04/05 04:51:03;;;;;;;31.10;16.50;;;;;;;;;;107636;1251;22561;-79
2023/04/05 04:53:30;;;;;;;33.90;16.80;;;;;;;;;;108265;1249;23349;-78
2023/04/05 04:55:56;;;;;;;35.70;20.80;;;;;;;;;;107580;1250;25330;-78
2023/04/05 04:58:22;;;;;;;29.70;18.20;;;;;;;;;;107595;1250;26330;-79
2023/04/05 05:00:51;;;;;;;42.00;22.10;;;;;;;;;;107543;1250;22522;-79
2023/04/05 05:03:18;;;;;;;41.70;19.70;;;;;;;;;;107582;1251;26594;-79
2023/04/05 05:05:45;;;;;;;30.60;16.80;;;;;;;;;;107534;1250;22528;-78
2023/04/05 05:08:12;;;;;;;40.60;19.80;;;;;;;;;;107544;1249;23022;-79
2023/04/05 05:10:38;;;;;;;64.80;35.20;;;;;;;;;;107547;1250;22524;-79
2023/04/05 05:13:05;;;;;;;61.40;26.90;;;;;;;;;;107545;1250;22558;-79
2023/04/05 05:15:31;;;;;;;45.50;26.30;;;;;;;;;;107541;1251;22624;-78
2023/04/05 05:17:57;;;;;;;43.40;22.50;;;;;;;;;;107653;1251;22518;-78
2023/04/05 05:20:26;;;;;;;48.20;24.00;;;;;;;;;;107583;1249;25366;-78
2023/04/05 05:22:52;;;;;;;33.40;18.90;;;;;;;;;;107600;1253;22541;-77
2023/04/05 05:25:20;;;;;;;34.90;18.70;;;;;;;;;;107564;1250;22555;-78
2023/04/05 05:27:49;;;;;;;33.60;17.90;;;;;;;;;;107563;1250;26057;-79
2023/04/05 05:30:16;;;;;;;26.70;16.00;;;;;;;;;;107579;1253;25439;-79
2023/04/05 05:32:43;;;;;;;34.00;16.20;;;;;;;;;;107557;1250;23607;-77
2023/04/05 05:35:09;;;;;;;35.70;18.40;;;;;;;;;;107550;1249;24969;-79
2023/04/05 05:37:36;;;;;;;31.90;14.90;;;;;;;;;;107595;1251;22517;-78
2023/04/05 05:40:05;;;;;;;29.80;17.70;;;;;;;;;;107763;1249;24181;-80
2023/04/05 05:42:32;;;;;;;32.00;16.00;;;;;;;;;;107675;1250;22524;-78
2023/04/05 05:45:03;;;;;;;35.40;21.70;;;;;;;;;;107720;1250;25375;-80
2023/04/05 05:47:29;;;;;;;50.30;29.70;;;;;;;;;;107675;1250;25333;-80
2023/04/05 05:49:56;;;;;;;259.50;120.40;;;;;;;;;;107909;1248;24382;-79
2023/04/05 05:52:23;;;;;;;48.50;27.30;;;;;;;;;;107733;1250;23271;-79
2023/04/05 05:54:49;;;;;;;48.30;20.20;;;;;;;;;;107681;1250;22550;-79
2023/04/05 05:57:16;;;;;;;33.10;18.70;;;;;;;;;;107696;1250;23198;-79
2023/04/05 05:59:42;;;;;;;28.90;15.00;;;;;;;;;;107919;1249;25430;-78
2023/04/05 06:02:09;;;;;;;33.10;18.30;;;;;;;;;;107769;1250;22991;-80
2023/04/05 06:04:36;;;;;;;32.60;15.90;;;;;;;;;;108335;1247;22614;-81
2023/04/05 06:07:03;;;;;;;31.50;17.80;;;;;;;;;;107822;1250;22552;-80
2023/04/05 06:09:32;;;;;;;37.10;20.90;;;;;;;;;;108365;1250;22545;-78
2023/04/05 06:11:59;;;;;;;48.80;24.80;;;;;;;;;;108184;1252;25265;-79
2023/04/05 06:14:27;;;;;;;46.30;20.00;;;;;;;;;;108157;1249;24777;-79
2023/04/05 06:16:54;;;;;;;40.10;21.20;;;;;;;;;;107740;1250;24108;-80
2023/04/05 06:19:21;;;;;;;33.60;18.30;;;;;;;;;;108315;1251;23896;-77
2023/04/05 06:21:50;;;;;;;34.90;20.20;;;;;;;;;;109538;1250;22608;-80
2023/04/05 06:24:18;;;;;;;37.10;19.80;;;;;;;;;;109393;1247;24228;-77
2023/04/05 06:26:45;;;;;;;35.50;17.80;;;;;;;;;;109791;1252;22637;-80
2023/04/05 06:29:13;;;;;;;;;;;;;;;;;;109625;1248;25329;-80
2023/04/05 06:31:42;;;;;;;31.40;14.90;;;;;;;;;;109132;1248;25355;-78
2023/04/05 06:34:08;;;;;;;29.50;15.10;;;;;;;;;;107849;1249;22607;-77
2023/04/05 06:36:35;;;;;;;27.20;15.30;;;;;;;;;;108059;1247;22561;-78
2023/04/05 06:39:01;;;;;;;28.40;15.50;;;;;;;;;;108224;1252;22559;-78
2023/04/05 06:41:28;;;;;;;26.10;15.70;;;;;;;;;;107958;1249;24173;-78
2023/04/05 06:43:55;;;;;;;22.30;14.40;;;;;;;;;;107890;1249;24267;-78
2023/04/05 06:46:21;;;;;;;35.20;18.10;;;;;;;;;;107939;1250;24285;-79
2023/04/05 06:48:49;;;;;;;27.10;15.50;;;;;;;;;;108009;1249;22541;-78
2023/04/05 06:51:15;;;;;;;28.90;15.20;;;;;;;;;;107892;1249;22648;-79
2023/04/05 06:53:42;;;;;;;25.90;13.20;;;;;;;;;;107967;1250;25470;-80
2023/04/05 06:56:08;;;;;;;25.50;14.40;;;;;;;;;;107953;1253;25410;-78
2023/04/05 06:58:35;;;;;;;117.70;61.40;;;;;;;;;;107729;1249;22610;-79
2023/04/05 07:01:02;;;;;;;102.30;66.60;;;;;;;;;;107821;1250;25221;-77
2023/04/05 07:03:28;;;;;;;33.60;21.30;;;;;;;;;;107813;1251;22530;-78
2023/04/05 07:05:58;;;;;;;45.30;29.10;;;;;;;;;;107718;1250;22679;-77
2023/04/05 07:08:25;;;;;;;47.70;39.20;;;;;;;;;;107868;1250;23514;-79
2023/04/05 07:10:51;;;;;;;33.30;18.90;;;;;;;;;;107906;1248;24257;-79
2023/04/05 07:13:18;;;;;;;29.00;16.40;;;;;;;;;;108001;1249;24618;-78
2023/04/05 07:15:44;;;;;;;99.00;60.10;;;;;;;;;;107725;1250;22661;-79
2023/04/05 07:18:11;;;;;;;39.20;23.20;;;;;;;;;;107796;1252;25303;-79
2023/04/05 07:20:37;;;;;;;225.50;124.10;;;;;;;;;;107793;1248;22528;-79
2023/04/05 07:23:04;;;;;;;404.00;253.40;;;;;;;;;;107727;1250;22527;-77
2023/04/05 07:25:31;;;;;;;55.20;34.30;;;;;;;;;;107677;1250;23788;-78
2023/04/05 07:27:57;;;;;;;33.90;29.40;;;;;;;;;;108027;1249;22874;-78
2023/04/05 07:30:24;;;;;;;22.90;14.60;;;;;;;;;;107941;1249;22515;-79
2023/04/05 07:32:51;;;;;;;21.10;11.50;;;;;;;;;;108089;1249;25335;-78
2023/04/05 07:35:17;;;;;;;41.80;20.90;;;;;;;;;;107783;1249;22532;-78
2023/04/05 07:37:43;;;;;;;29.60;16.10;;;;;;;;;;107990;1250;24762;-79
2023/04/05 07:40:10;;;;;;;11.80;8.70;;;;;;;;;;107776;1248;22660;-78
2023/04/05 07:42:36;;;;;;;11.70;6.70;;;;;;;;;;107862;1251;22539;-77
2023/04/05 07:45:03;;;;;;;7.10;4.90;;;;;;;;;;107849;1249;24113;-79
2023/04/05 07:47:31;;;;;;;6.50;4.30;;;;;;;;;;107795;1252;22546;-79
2023/04/05 07:49:58;;;;;;;5.90;4.10;;;;;;;;;;107830;1250;23070;-79
2023/04/05 07:52:24;;;;;;;9.10;3.80;;;;;;;;;;107812;1252;22529;-79
2023/04/05 07:54:51;;;;;;;5.70;3.00;;;;;;;;;;107918;1249;22991;-78
2023/04/05 07:57:17;;;;;;;8.20;3.20;;;;;;;;;;107859;1249;22700;-78
2023/04/05 07:59:44;;;;;;;10.50;4.40;;;;;;;;;;107868;1250;22534;-77
2023/04/05 08:02:10;;;;;;;7.20;3.70;;;;;;;;;;108040;1250;24106;-77
2023/04/05 08:04:37;;;;;;;6.90;5.30;;;;;;;;;;108151;1248;25310;-80
2023/04/05 08:07:03;;;;;;;7.00;4.50;;;;;;;;;;107842;1250;23233;-79
2023/04/05 08:09:30;;;;;;;16.00;8.00;;;;;;;;;;107898;1252;23254;-76
2023/04/05 08:11:56;;;;;;;6.80;4.10;;;;;;;;;;107968;1249;23067;-78
2023/04/05 08:14:22;;;;;;;9.40;7.40;;;;;;;;;;107874;1250;23890;-77
2023/04/05 08:16:50;;;;;;;8.40;4.10;;;;;;;;;;107978;1249;25285;-79
2023/04/05 08:19:17;;;;;;;7.80;5.00;;;;;;;;;;108043;1250;25316;-77
2023/04/05 08:21:43;;;;;;;7.30;4.80;;;;;;;;;;108098;1250;22531;-78
2023/04/05 08:24:09;;;;;;;8.90;4.80;;;;;;;;;;108148;1249;22540;-77
2023/04/05 08:26:36;;;;;;;8.20;5.20;;;;;;;;;;108647;1248;22562;-78
2023/04/05 08:29:02;;;;;;;7.30;4.90;;;;;;;;;;109947;1249;22566;-78
2023/04/05 08:31:28;;;;;;;7.50;4.00;;;;;;;;;;110299;1247;22525;-78
2023/04/05 08:33:55;;;;;;;10.10;5.10;;;;;;;;;;110172;1247;22312;-76
2023/04/05 08:36:21;;;;;;;7.80;4.90;;;;;;;;;;110425;1250;22490;-77
2023/04/05 08:38:48;;;;;;;7.10;5.00;;;;;;;;;;110291;1250;22628;-78
2023/04/05 08:41:18;;;;;;;9.00;5.20;;;;;;;;;;110320;1249;22640;-76
2023/04/05 08:44:01;;;;;;;11.00;5.20;;;;;;;;;;109949;1249;22640;-78
2023/04/05 08:46:31;;;;;;;8.30;4.60;;;;;;;;;;110149;1250;22895;-78
2023/04/05 08:48:57;;;;;;;9.70;5.70;;;;;;;;;;110088;1250;22635;-78
2023/04/05 08:51:24;;;;;;;9.50;4.60;;;;;;;;;;109850;1250;22483;-79
2023/04/05 08:53:52;;;;;;;8.20;5.20;;;;;;;;;;109852;1250;22545;-76
2023/04/05 08:56:20;;;;;;;10.80;6.10;;;;;;;;;;109495;1250;22526;-79
2023/04/05 08:58:48;;;;;;;13.80;7.00;;;;;;;;;;109549;1250;25343;-76
2023/04/05 09:01:15;;;;;;;9.60;5.50;;;;;;;;;;109120;1252;22526;-76
2023/04/05 09:03:41;;;;;;;15.40;8.10;;;;;;;;;;108015;1252;22546;-80
2023/04/05 09:06:08;;;;;;;24.30;11.10;;;;;;;;;;107884;1250;23289;-76
2023/04/05 09:08:35;;;;;;;9.60;7.00;;;;;;;;;;107978;1249;25343;-76
2023/04/05 09:11:01;;;;;;;8.80;5.90;;;;;;;;;;107800;1250;22521;-76
2023/04/05 09:13:28;;;;;;;17.10;8.50;;;;;;;;;;107732;1250;22555;-76
2023/04/05 09:15:54;;;;;;;8.70;5.80;;;;;;;;;;107861;1249;22525;-79
2023/04/05 09:18:20;;;;;;;8.40;5.40;;;;;;;;;;107927;1249;22519;-79
2023/04/05 09:20:47;;;;;;;8.40;5.50;;;;;;;;;;107920;1249;22544;-78
2023/04/05 09:23:13;;;;;;;17.70;9.60;;;;;;;;;;107704;1249;22549;-80
2023/04/05 09:25:41;;;;;;;9.00;6.50;;;;;;;;;;107838;1249;25392;-79
2023/04/05 09:28:08;;;;;;;8.40;5.50;;;;;;;;;;107798;1250;22515;-79
2023/04/05 09:30:35;;;;;;;13.40;8.20;;;;;;;;;;107736;1250;22597;-78
2023/04/05 09:33:02;;;;;;;20.20;9.00;;;;;;;;;;107875;1249;26400;-77
2023/04/05 09:35:29;;;;;;;15.70;8.80;;;;;;;;;;108511;1250;23198;-80
2023/04/05 09:37:57;;;;;;;14.30;7.20;;;;;;;;;;107688;1250;26497;-81
2023/04/05 09:40:23;;;;;;;17.70;10.30;;;;;;;;;;107880;1249;22528;-80
2023/04/05 09:42:51;;;;;;;9.50;5.90;;;;;;;;;;107799;1250;23997;-78
2023/04/05 09:45:18;;;;;;;13.00;4.80;;;;;;;;;;108000;1249;22683;-77
2023/04/05 09:47:55;;;;;;;36.80;16.10;;;;;;;;;;107666;1249;22552;-78
2023/04/05 09:50:21;;;;;;;11.20;6.20;;;;;;;;;;107671;1250;24221;-79
2023/04/05 09:52:48;;;;;;;8.50;6.10;;;;;;;;;;107679;1250;24242;-79
2023/04/05 09:55:24;;;;;;;12.80;5.00;;;;;;;;;;107589;1250;25494;-78
2023/04/05 09:57:50;;;;;;;12.00;6.10;;;;;;;;;;107546;1249;22943;-78
2023/04/05 10:00:18;;;;;;;13.70;7.30;;;;;;;;;;107601;1252;25358;-78
2023/04/05 10:02:46;;;;;;;18.80;12.70;;;;;;;;;;107741;1248;24394;-78
2023/04/05 10:05:14;;;;;;;13.70;8.30;;;;;;;;;;107693;1250;23345;-78
2023/04/05 10:07:41;;;;;;;11.70;7.10;;;;;;;;;;107632;1250;22547;-78
2023/04/05 10:10:08;;;;;;;10.50;5.70;;;;;;;;;;107726;1249;22515;-79
2023/04/05 10:12:36;;;;;;;11.00;7.30;;;;;;;;;;107564;1249;24272;-79
2023/04/05 10:15:04;;;;;;;12.10;7.10;;;;;;;;;;107599;1250;22700;-77
2023/04/05 10:17:31;;;;;;;11.30;6.70;;;;;;;;;;107712;1249;25171;-77
2023/04/05 10:20:14;;;;;;;10.20;5.40;;;;;;;;;;107769;1250;24874;-78
2023/04/05 10:23:00;;;;;;;11.10;6.50;;;;;;;;;;107544;1249;23695;-79
2023/04/05 10:25:30;;;;;;;11.40;6.30;;;;;;;;;;107537;1249;22574;-78
2023/04/05 10:28:20;;;;;;;12.70;5.70;;;;;;;;;;107605;1247;22554;-78
2023/04/05 10:30:47;;;;;;;14.00;8.50;;;;;;;;;;107533;1248;22528;-77
2023/04/05 10:33:20;;;;;;;15.60;8.70;;;;;;;;;;107620;1248;24183;-80
2023/04/05 10:36:07;;;;;;;14.80;8.70;;;;;;;;;;107709;1252;22524;-78
2023/04/05 10:39:00;;;;;;;13.30;7.70;;;;;;;;;;107831;1250;22736;-77
2023/04/05 10:41:26;;;;;;;17.90;9.20;;;;;;;;;;107608;1250;23034;-79
2023/04/05 10:43:53;;;;;;;15.80;10.10;;;;;;;;;;107600;1250;25364;-77
2023/04/05 10:46:21;;;;;;;19.00;9.30;;;;;;;;;;108212;1250;23280;-77
2023/04/05 10:48:54;;;;;;;16.80;10.00;;;;;;;;;;107750;1250;25220;-80
2023/04/05 10:51:22;;;;;;;23.50;11.40;;;;;;;;;;107720;1250;22518;-79
2023/04/05 10:53:49;;;;;;;15.60;9.20;;;;;;;;;;107854;1250;22565;-80
2023/04/05 10:56:15;;;;;;;14.80;9.20;;;;;;;;;;107775;1250;24072;-81
2023/04/05 10:58:42;;;;;;;18.30;10.20;;;;;;;;;;107735;1248;25332;-78
2023/04/05 11:01:09;;;;;;;20.50;9.90;;;;;;;;;;107877;1250;22625;-80
2023/04/05 11:03:48;;;;;;;127.50;54.70;;;;;;;;;;108160;1250;23126;-77
2023/04/05 11:06:14;;;;;;;;;;;;;;;;;;108351;1249;22504;-76
2023/04/05 11:08:41;;;;;;;20.10;11.40;;;;;;;;;;107725;1249;25356;-78
2023/04/05 11:11:08;;;;;;;25.10;14.00;;;;;;;;;;107874;1249;22651;-77
2023/04/05 11:14:07;;;;;;;16.50;10.00;;;;;;;;;;107554;1250;22524;-77
2023/04/05 11:16:39;;;;;;;17.40;9.60;;;;;;;;;;107428;1250;22549;-79
2023/04/05 11:19:06;;;;;;;19.00;10.00;;;;;;;;;;107586;1250;25422;-77
2023/04/05 11:21:32;;;;;;;18.50;10.50;;;;;;;;;;107893;1252;22544;-77
2023/04/05 11:24:03;;;;;;;24.20;13.40;;;;;;;;;;108059;1250;25440;-78
2023/04/05 11:26:38;;;;;;;25.80;15.80;;;;;;;;;;107625;1250;24266;-77
2023/04/05 11:29:05;;;;;;;20.90;10.70;;;;;;;;;;107960;1250;22955;-78
2023/04/05 11:31:31;;;;;;;12.90;7.60;;;;;;;;;;107821;1250;25234;-78
2023/04/05 11:33:58;;;;;;;16.10;7.60;;;;;;;;;;107784;1249;22531;-79
2023/04/05 11:36:32;;;;;;;14.00;8.70;;;;;;;;;;107724;1250;22540;-78
2023/04/05 11:39:17;;;;;;;11.30;7.60;;;;;;;;;;107820;1251;22537;-77
2023/04/05 11:41:46;;;;;;;14.00;8.50;;;;;;;;;;107738;1248;23123;-77
2023/04/05 11:44:13;;;;;;;15.00;9.10;;;;;;;;;;108058;1250;22992;-77
2023/04/05 11:46:40;;;;;;;14.50;10.00;;;;;;;;;;108579;1249;22686;-76
2023/04/05 11:49:07;;;;;;;14.50;8.50;;;;;;;;;;108813;1249;23583;-79
2023/04/05 11:51:33;;;;;;;68.70;35.80;;;;;;;;;;107673;1248;22544;-78
2023/04/05 11:53:59;;;;;;;18.80;11.90;;;;;;;;;;107655;1250;23448;-78
2023/04/05 11:56:26;;;;;;;12.50;7.60;;;;;;;;;;107682;1250;22529;-77
2023/04/05 11:58:56;;;;;;;15.00;7.70;;;;;;;;;;107817;1250;23907;-79
2023/04/05 12:01:22;;;;;;;13.30;7.90;;;;;;;;;;107618;1252;22583;-77
2023/04/05 12:03:55;;;;;;;18.10;9.30;;;;;;;;;;108069;1250;22526;-79
2023/04/05 12:06:22;;;;;;;13.10;8.80;;;;;;;;;;107944;1250;25409;-78
2023/04/05 12:08:49;;;;;;;17.70;9.80;;;;;;;;;;107877;1250;22588;-78
2023/04/05 12:11:16;;;;;;;18.60;8.90;;;;;;;;;;108470;1250;23233;-79
2023/04/05 12:13:44;;;;;;;22.30;9.40;;;;;;;;;;107947;1250;22746;-76
2023/04/05 12:16:10;;;;;;;20.30;10.60;;;;;;;;;;107644;1250;22531;-77
2023/04/05 12:18:36;;;;;;;19.60;11.10;;;;;;;;;;107834;1250;22554;-82
2023/04/05 12:21:03;;;;;;;16.90;10.20;;;;;;;;;;107809;1247;25407;-77
2023/04/05 12:23:30;;;;;;;16.00;9.60;;;;;;;;;;107772;1250;22518;-76
2023/04/05 12:25:56;;;;;;;16.10;9.70;;;;;;;;;;107685;1252;26428;-77
2023/04/05 12:28:23;;;;;;;14.70;8.70;;;;;;;;;;107523;1248;26431;-78
2023/04/05 12:30:52;;;;;;;18.40;10.00;;;;;;;;;;108167;1250;22552;-75
2023/04/05 12:33:29;;;;;;;21.50;11.60;;;;;;;;;;107755;1249;25298;-76
2023/04/05 12:35:55;;;;;;;23.70;11.80;;;;;;;;;;108214;1250;25403;-80
2023/04/05 12:38:26;;;;;;;26.70;12.00;;;;;;;;;;107842;1252;22527;-77
2023/04/05 12:40:53;;;;;;;17.30;10.30;;;;;;;;;;107829;1250;22545;-78
2023/04/05 12:43:19;;;;;;;21.70;12.50;;;;;;;;;;107601;1250;24375;-78
2023/04/05 12:45:46;;;;;;;29.60;12.60;;;;;;;;;;107755;1249;22532;-78
2023/04/05 12:48:12;;;;;;;20.90;13.70;;;;;;;;;;108080;1251;22534;-79
2023/04/05 12:50:43;;;;;;;22.10;11.40;;;;;;;;;;108091;1250;22616;-80
2023/04/05 12:53:16;;;;;;;21.00;11.00;;;;;;;;;;108391;1250;23381;-78
2023/04/05 12:55:44;;;;;;;19.70;10.30;;;;;;;;;;108038;1250;25191;-79
2023/04/05 12:58:12;;;;;;;17.90;10.80;;;;;;;;;;107743;1250;22519;-78
2023/04/05 13:00:38;;;;;;;15.60;9.70;;;;;;;;;;107795;1250;22531;-79
2023/04/05 13:03:04;;;;;;;20.00;11.10;;;;;;;;;;107750;1249;24408;-78
2023/04/05 13:05:31;;;;;;;31.20;12.30;;;;;;;;;;107987;1250;25308;-80
2023/04/05 13:07:58;;;;;;;28.10;14.40;;;;;;;;;;108117;1250;23787;-79
2023/04/05 13:10:24;;;;;;;25.60;13.70;;;;;;;;;;108155;1250;22539;-77
2023/04/05 13:12:51;;;;;;;26.20;14.10;;;;;;;;;;108180;1250;23194;-76
2023/04/05 13:15:17;;;;;;;29.70;15.80;;;;;;;;;;108077;1250;22590;-77
2023/04/05 13:17:48;;;;;;;41.30;26.10;;;;;;;;;;108007;1250;24372;-79
2023/04/05 13:20:16;;;;;;;22.60;16.00;;;;;;;;;;107980;1248;22992;-77
2023/04/05 13:22:42;;;;;;;24.50;14.20;;;;;;;;;;107985;1250;23544;-77
2023/04/05 13:25:09;;;;;;;22.20;11.50;;;;;;;;;;108205;1249;22934;-77
2023/04/05 13:27:35;;;;;;;18.80;12.00;;;;;;;;;;108313;1250;23641;-79
2023/04/05 13:30:02;;;;;;;30.20;18.20;;;;;;;;;;107940;1250;25354;-77
2023/04/05 13:32:28;;;;;;;105.20;49.20;;;;;;;;;;108300;1253;23374;-77
2023/04/05 13:34:54;;;;;;;26.60;15.10;;;;;;;;;;110393;1248;22185;-77
2023/04/05 13:37:21;;;;;;;25.40;14.80;;;;;;;;;;110794;1249;22218;-77
2023/04/05 13:39:47;;;;;;;28.60;15.10;;;;;;;;;;110791;1250;23053;-79
2023/04/05 13:42:13;;;;;;;51.80;25.70;;;;;;;;;;110746;1249;22499;-77
2023/04/05 13:44:40;;;;;;;36.40;21.30;;;;;;;;;;110767;1249;22391;-77
2023/04/05 13:47:07;;;;;;;26.60;13.30;;;;;;;;;;108086;1250;24215;-78
2023/04/05 13:49:33;;;;;;;19.80;13.00;;;;;;;;;;108050;1248;24167;-77
2023/04/05 13:51:59;;;;;;;29.80;16.00;;;;;;;;;;108171;1250;22666;-77
2023/04/05 13:54:26;;;;;;;46.10;23.80;;;;;;;;;;107897;1250;23328;-78
2023/04/05 13:56:52;;;;;;;25.80;13.90;;;;;;;;;;107587;1250;24217;-76
2023/04/05 13:59:19;;;;;;;24.30;14.10;;;;;;;;;;107466;1250;159933;-77
2023/04/05 14:01:45;;;;;;;25.30;14.20;;;;;;;;;;107589;1250;24167;-77
2023/04/05 14:04:12;;;;;;;43.00;23.10;;;;;;;;;;107521;1252;25285;-77
2023/04/05 14:06:38;;;;;;;20.10;11.60;;;;;;;;;;107550;1250;25315;-78
2023/04/05 14:09:04;;;;;;;26.60;15.50;;;;;;;;;;107614;1252;22525;-77
2023/04/05 14:11:31;;;;;;;24.40;11.60;;;;;;;;;;107755;1250;22682;-79
2023/04/05 14:13:57;;;;;;;33.60;16.60;;;;;;;;;;107863;1250;22536;-78